トロムソ の空港の天気 - METARとTAF

トロムソ空港 ( ENTC / TOS ) - ノルウェー トロムス県トロムソ
飛行場実況気象(Metar)
観測時間11/17 18:50 CET (11/17 17:50 UTC)
風向・風速不定 1m/s
視程10km以上
天気現象
少しの雲 雲底高度 700m
全天の8割程度の雲 雲底高度 910m
気温3℃
湿度87%
気圧1041hPa
METARENTC 171750Z VRB01KT 9999 FEW023 BKN030 03/01 Q1041 NOSIG RMK WIND 2600FT VRB06G18KT
過去の天気等 Google飛行場航空写真 Wunderground天気予報

過去48時間のMETAR

飛行場予報(TAF)
発表時間: -
17日13時 CET ~ 17日19時 CET に 確率 30% で一時的に
風向・風速北北西 5m/s
18日3時 CET ~ 18日6時 CET に徐々に
風向・風速南南西 5m/s
TAF ENTC 1712/1812 VRB05KT 9999 FEW012 BKN030
PROB30 TEMPO 1712/1718 34010KT
BECMG 1802/1805 20010KT